createdAt,value
2019-04-11T18:16:50.326Z,17.37
2019-04-11T18:19:18.125Z,19.35
2019-04-11T18:21:46.609Z,16.35
2019-04-11T18:24:14.077Z,16.80
2019-04-11T18:26:41.582Z,17.90
2019-04-11T18:29:09.646Z,19.00
2019-04-11T18:31:37.150Z,18.73
2019-04-11T18:34:04.746Z,17.82
2019-04-11T18:36:32.574Z,18.48
2019-04-11T18:39:05.627Z,18.32
2019-04-11T18:41:29.686Z,17.52
2019-04-11T18:43:57.205Z,18.32
2019-04-11T18:46:24.867Z,17.05
2019-04-11T18:48:54.475Z,16.35
2019-04-11T18:51:23.223Z,17.55
2019-04-11T18:53:51.349Z,17.75
2019-04-11T18:56:19.047Z,17.98
2019-04-11T18:58:46.788Z,16.52
2019-04-11T19:01:17.969Z,17.75
2019-04-11T19:03:45.844Z,17.02
2019-04-11T19:06:13.802Z,17.65
2019-04-11T19:08:43.485Z,16.75
2019-04-11T19:11:15.392Z,17.07
2019-04-11T19:13:41.786Z,17.85
2019-04-11T19:16:09.619Z,19.50
2019-04-11T19:18:37.383Z,16.77
2019-04-11T19:21:05.078Z,17.40
2019-04-11T19:23:33.249Z,17.50
2019-04-11T19:26:01.053Z,16.93
2019-04-11T19:28:29.142Z,16.75
2019-04-11T19:30:57.740Z,18.25
2019-04-11T19:33:25.394Z,18.70
2019-04-11T19:35:53.215Z,16.85
2019-04-11T19:38:25.873Z,18.10
2019-04-11T19:40:55.534Z,16.60
2019-04-11T19:43:22.898Z,16.42
2019-04-11T19:45:50.560Z,15.60
2019-04-11T19:48:18.188Z,15.55
2019-04-11T19:50:45.769Z,17.05
2019-04-11T19:53:13.422Z,18.75
2019-04-11T19:56:18.535Z,16.30
2019-04-11T19:58:46.085Z,17.02
2019-04-11T20:01:13.619Z,16.90
2019-04-11T20:03:41.505Z,18.35
2019-04-11T20:06:09.380Z,19.52
2019-04-11T20:08:36.831Z,16.73
2019-04-11T20:11:04.617Z,18.48
2019-04-11T20:13:32.882Z,17.70
2019-04-11T20:16:00.698Z,16.35
2019-04-11T20:18:28.993Z,17.75
2019-04-11T20:20:57.090Z,17.12
2019-04-11T20:23:25.054Z,17.15
2019-04-11T20:25:52.754Z,16.90
2019-04-11T20:28:20.876Z,18.80
2019-04-11T20:30:49.876Z,17.50
2019-04-11T20:33:26.635Z,17.42
2019-04-11T20:35:47.799Z,17.45
2019-04-11T20:38:17.662Z,15.83
2019-04-11T20:40:46.459Z,18.02
2019-04-11T20:43:14.046Z,18.82
2019-04-11T20:45:44.540Z,19.05
2019-04-11T20:48:13.755Z,17.45
2019-04-11T20:50:41.667Z,17.57
2019-04-11T20:53:12.828Z,17.15
2019-04-11T20:55:39.995Z,16.50
2019-04-11T20:58:10.415Z,15.72
2019-04-11T21:00:49.683Z,17.57
2019-04-11T21:03:07.223Z,16.48
2019-04-11T21:05:34.941Z,15.50
2019-04-11T21:08:03.082Z,16.60
2019-04-11T21:10:31.968Z,16.82
2019-04-11T21:13:01.039Z,15.45
2019-04-11T21:15:28.977Z,17.32
2019-04-11T21:17:56.958Z,18.77
2019-04-11T21:20:24.635Z,17.20
2019-04-11T21:22:53.979Z,16.70
2019-04-11T21:25:21.581Z,15.85
2019-04-11T21:27:49.127Z,18.92
2019-04-11T21:30:17.202Z,17.15
2019-04-11T21:32:44.781Z,16.85
2019-04-11T21:35:12.351Z,16.75
2019-04-11T21:37:39.900Z,16.50
2019-04-11T21:40:11.466Z,16.48
2019-04-11T21:42:44.150Z,16.87
2019-04-11T21:45:31.177Z,15.75
2019-04-11T21:47:59.039Z,15.10
2019-04-11T21:50:26.554Z,15.25
2019-04-11T21:52:54.093Z,15.72
2019-04-11T21:55:21.621Z,14.80
2019-04-11T21:57:49.626Z,15.03
2019-04-11T22:00:24.443Z,16.45
2019-04-11T22:02:54.504Z,15.58
2019-04-11T22:05:21.544Z,14.58
2019-04-11T22:07:49.046Z,16.60
2019-04-11T22:10:17.111Z,14.95
2019-04-11T22:12:44.633Z,14.55
2019-04-11T22:15:12.589Z,15.35
2019-04-11T22:17:42.904Z,14.00
2019-04-11T22:20:10.003Z,15.98
2019-04-11T22:22:37.535Z,13.55
2019-04-11T22:25:05.377Z,14.53
2019-04-11T22:27:32.892Z,14.80
2019-04-11T22:30:00.459Z,14.28
2019-04-11T22:32:27.983Z,14.47
2019-04-11T22:34:56.782Z,15.10
2019-04-11T22:37:24.782Z,15.13
2019-04-11T22:39:52.333Z,12.58
2019-04-11T22:42:19.873Z,15.23
2019-04-11T22:44:47.367Z,15.20
2019-04-11T22:47:15.372Z,14.95
2019-04-11T22:49:42.904Z,14.65
2019-04-11T22:52:11.306Z,14.47
2019-04-11T22:54:41.191Z,15.25
2019-04-11T22:57:11.889Z,15.05
2019-04-11T22:59:38.644Z,14.58
2019-04-11T23:02:34.693Z,13.35
2019-04-11T23:05:02.209Z,14.73
2019-04-11T23:07:29.645Z,13.88
2019-04-11T23:09:57.255Z,12.88
2019-04-11T23:12:24.780Z,14.13
2019-04-11T23:14:52.320Z,14.43
2019-04-11T23:17:19.877Z,12.43
2019-04-11T23:19:47.371Z,13.55
2019-04-11T23:22:14.876Z,13.75
2019-04-11T23:24:42.409Z,14.07
2019-04-11T23:27:09.850Z,14.10
2019-04-11T23:29:37.341Z,13.22
2019-04-11T23:32:04.836Z,13.95
2019-04-11T23:34:32.389Z,12.75
2019-04-11T23:36:59.925Z,13.65
2019-04-11T23:39:27.439Z,14.00
2019-04-11T23:41:54.940Z,13.30
2019-04-11T23:44:22.424Z,11.80
2019-04-11T23:46:52.097Z,12.75
2019-04-11T23:49:19.425Z,13.05
2019-04-11T23:51:46.928Z,13.98
2019-04-11T23:54:22.728Z,13.62
2019-04-11T23:56:43.762Z,13.40
2019-04-11T23:59:11.260Z,12.65
